sensor_id;sensor_type;location;lat;lon;timestamp;pressure;altitude;pressure_sealevel;temperature;humidity
1472;BME280;963;42.644;23.336;2024-01-15T00:00:42;93592.88;;;1.37;56.92
1472;BME280;963;42.644;23.336;2024-01-15T00:03:07;93588.72;;;1.44;56.67
1472;BME280;963;42.644;23.336;2024-01-15T00:05:33;93583.47;;;1.32;56.86
1472;BME280;963;42.644;23.336;2024-01-15T00:07:58;93601.06;;;1.47;56.86
1472;BME280;963;42.644;23.336;2024-01-15T00:10:23;93595.53;;;1.28;57.55
1472;BME280;963;42.644;23.336;2024-01-15T00:12:49;93590.38;;;1.58;56.30
1472;BME280;963;42.644;23.336;2024-01-15T00:15:15;93590.06;;;1.59;56.27
1472;BME280;963;42.644;23.336;2024-01-15T00:17:40;93578.38;;;1.44;57.23
1472;BME280;963;42.644;23.336;2024-01-15T00:20:06;93590.88;;;1.42;57.30
1472;BME280;963;42.644;23.336;2024-01-15T00:22:32;93581.59;;;1.41;57.17
1472;BME280;963;42.644;23.336;2024-01-15T00:24:57;93596.41;;;1.32;57.86
1472;BME280;963;42.644;23.336;2024-01-15T00:27:23;93584.28;;;1.24;57.83
1472;BME280;963;42.644;23.336;2024-01-15T00:29:49;93596.16;;;1.25;58.47
1472;BME280;963;42.644;23.336;2024-01-15T00:32:16;93600.91;;;1.14;58.11
1472;BME280;963;42.644;23.336;2024-01-15T00:34:41;93591.44;;;1.18;58.86
1472;BME280;963;42.644;23.336;2024-01-15T00:37:06;93595.44;;;1.16;58.89
1472;BME280;963;42.644;23.336;2024-01-15T00:39:32;93603.19;;;1.07;58.67
1472;BME280;963;42.644;23.336;2024-01-15T00:41:58;93588.72;;;1.06;58.90
1472;BME280;963;42.644;23.336;2024-01-15T00:44:23;93601.53;;;1.03;58.76
1472;BME280;963;42.644;23.336;2024-01-15T00:46:48;93628.94;;;1.04;58.85
1472;BME280;963;42.644;23.336;2024-01-15T00:49:14;93595.56;;;1.11;58.73
1472;BME280;963;42.644;23.336;2024-01-15T00:51:40;93616.28;;;1.11;58.62
1472;BME280;963;42.644;23.336;2024-01-15T00:54:06;93592.22;;;1.10;59.37
1472;BME280;963;42.644;23.336;2024-01-15T00:56:31;93587.69;;;0.99;57.86
1472;BME280;963;42.644;23.336;2024-01-15T00:58:57;93584.03;;;1.00;58.18
1472;BME280;963;42.644;23.336;2024-01-15T01:01:22;93594.97;;;1.05;58.96
1472;BME280;963;42.644;23.336;2024-01-15T01:03:47;93578.25;;;1.03;58.45
1472;BME280;963;42.644;23.336;2024-01-15T01:06:13;93591.63;;;1.05;57.89
1472;BME280;963;42.644;23.336;2024-01-15T01:08:39;93592.09;;;1.07;57.96
1472;BME280;963;42.644;23.336;2024-01-15T01:11:04;93600.59;;;1.07;58.03
1472;BME280;963;42.644;23.336;2024-01-15T01:13:32;93587.34;;;1.09;58.15
1472;BME280;963;42.644;23.336;2024-01-15T01:15:57;93582.34;;;1.04;58.30
1472;BME280;963;42.644;23.336;2024-01-15T01:18:23;93602.63;;;1.02;57.93
1472;BME280;963;42.644;23.336;2024-01-15T01:20:48;93590.34;;;0.73;58.82
1472;BME280;963;42.644;23.336;2024-01-15T01:23:14;93592.19;;;0.81;58.60
1472;BME280;963;42.644;23.336;2024-01-15T01:25:39;93582.88;;;0.88;58.22
1472;BME280;963;42.644;23.336;2024-01-15T01:28:04;93579.81;;;0.86;58.59
1472;BME280;963;42.644;23.336;2024-01-15T01:30:30;93565.81;;;0.87;58.87
1472;BME280;963;42.644;23.336;2024-01-15T01:32:55;93566.72;;;0.91;59.21
1472;BME280;963;42.644;23.336;2024-01-15T01:35:22;93575.25;;;0.83;59.45
1472;BME280;963;42.644;23.336;2024-01-15T01:37:47;93585.75;;;0.87;58.91
1472;BME280;963;42.644;23.336;2024-01-15T01:40:13;93565.19;;;0.90;58.72
1472;BME280;963;42.644;23.336;2024-01-15T01:42:38;93572.19;;;0.90;59.03
1472;BME280;963;42.644;23.336;2024-01-15T01:45:04;93581.78;;;0.89;58.89
1472;BME280;963;42.644;23.336;2024-01-15T01:47:30;93570.56;;;0.77;59.07
1472;BME280;963;42.644;23.336;2024-01-15T01:49:55;93585.34;;;0.76;58.81
1472;BME280;963;42.644;23.336;2024-01-15T01:52:21;93541.47;;;0.71;59.34
1472;BME280;963;42.644;23.336;2024-01-15T01:54:47;93544.25;;;0.66;58.86
1472;BME280;963;42.644;23.336;2024-01-15T01:57:13;93565.69;;;0.84;59.02
1472;BME280;963;42.644;23.336;2024-01-15T01:59:39;93565.91;;;0.36;60.95
1472;BME280;963;42.644;23.336;2024-01-15T02:02:05;93542.81;;;0.13;61.41
1472;BME280;963;42.644;23.336;2024-01-15T02:04:31;93553.59;;;0.24;61.08
1472;BME280;963;42.644;23.336;2024-01-15T02:06:56;93552.97;;;0.36;60.98
1472;BME280;963;42.644;23.336;2024-01-15T02:09:22;93553.84;;;0.57;60.50
1472;BME280;963;42.644;23.336;2024-01-15T02:11:47;93559.78;;;0.66;60.33
1472;BME280;963;42.644;23.336;2024-01-15T02:14:13;93556.78;;;0.21;61.05
1472;BME280;963;42.644;23.336;2024-01-15T02:16:38;93536.56;;;0.14;60.77
1472;BME280;963;42.644;23.336;2024-01-15T02:19:04;93531.22;;;0.45;60.42
1472;BME280;963;42.644;23.336;2024-01-15T02:21:31;93535.81;;;0.14;61.02
1472;BME280;963;42.644;23.336;2024-01-15T02:23:57;93524.81;;;0.51;59.83
1472;BME280;963;42.644;23.336;2024-01-15T02:26:22;93504.88;;;0.52;60.42
1472;BME280;963;42.644;23.336;2024-01-15T02:28:49;93497.25;;;0.55;60.72
1472;BME280;963;42.644;23.336;2024-01-15T02:31:15;93476.16;;;0.27;61.19
1472;BME280;963;42.644;23.336;2024-01-15T02:33:42;93478.91;;;0.40;60.80
1472;BME280;963;42.644;23.336;2024-01-15T02:36:07;93480.78;;;-0.04;61.84
1472;BME280;963;42.644;23.336;2024-01-15T02:38:33;93494.47;;;0.05;61.54
1472;BME280;963;42.644;23.336;2024-01-15T02:40:58;93501.16;;;0.06;61.18
1472;BME280;963;42.644;23.336;2024-01-15T02:43:24;93470.75;;;0.12;60.52
1472;BME280;963;42.644;23.336;2024-01-15T02:45:49;93487.00;;;0.12;60.89
1472;BME280;963;42.644;23.336;2024-01-15T02:48:15;93471.31;;;0.26;59.55
1472;BME280;963;42.644;23.336;2024-01-15T02:50:40;93468.34;;;0.53;59.42
1472;BME280;963;42.644;23.336;2024-01-15T02:53:06;93483.66;;;0.67;59.79
1472;BME280;963;42.644;23.336;2024-01-15T02:55:31;93476.47;;;0.73;58.95
1472;BME280;963;42.644;23.336;2024-01-15T02:57:57;93460.97;;;0.73;58.84
1472;BME280;963;42.644;23.336;2024-01-15T03:00:23;93483.94;;;0.74;58.80
1472;BME280;963;42.644;23.336;2024-01-15T03:02:50;93482.66;;;0.89;58.89
1472;BME280;963;42.644;23.336;2024-01-15T03:05:16;93477.00;;;0.96;58.84
1472;BME280;963;42.644;23.336;2024-01-15T03:07:42;93487.22;;;0.92;58.57
1472;BME280;963;42.644;23.336;2024-01-15T03:10:07;93474.41;;;0.96;58.19
1472;BME280;963;42.644;23.336;2024-01-15T03:12:33;93496.63;;;0.97;58.23
1472;BME280;963;42.644;23.336;2024-01-15T03:14:59;93460.66;;;1.04;58.25
1472;BME280;963;42.644;23.336;2024-01-15T03:17:24;93447.00;;;0.94;58.40
1472;BME280;963;42.644;23.336;2024-01-15T03:19:49;93458.69;;;0.24;59.73
1472;BME280;963;42.644;23.336;2024-01-15T03:22:16;93466.00;;;0.69;59.39
1472;BME280;963;42.644;23.336;2024-01-15T03:24:41;93459.72;;;0.79;58.79
1472;BME280;963;42.644;23.336;2024-01-15T03:27:06;93468.34;;;0.91;58.79
1472;BME280;963;42.644;23.336;2024-01-15T03:29:32;93459.69;;;0.87;58.95
1472;BME280;963;42.644;23.336;2024-01-15T03:31:57;93445.22;;;0.86;58.73
1472;BME280;963;42.644;23.336;2024-01-15T03:34:23;93429.66;;;0.95;59.05
1472;BME280;963;42.644;23.336;2024-01-15T03:36:48;93451.09;;;1.25;58.01
1472;BME280;963;42.644;23.336;2024-01-15T03:39:14;93440.88;;;1.29;58.25
1472;BME280;963;42.644;23.336;2024-01-15T03:41:39;93413.50;;;0.69;60.59
1472;BME280;963;42.644;23.336;2024-01-15T03:44:05;93455.94;;;1.06;59.92
1472;BME280;963;42.644;23.336;2024-01-15T03:46:30;93425.72;;;1.18;58.60
1472;BME280;963;42.644;23.336;2024-01-15T03:48:55;93422.25;;;1.14;59.05
1472;BME280;963;42.644;23.336;2024-01-15T03:51:21;93452.81;;;1.21;59.04
1472;BME280;963;42.644;23.336;2024-01-15T03:53:46;93442.50;;;1.12;58.81
1472;BME280;963;42.644;23.336;2024-01-15T03:56:12;93441.84;;;0.94;59.77
1472;BME280;963;42.644;23.336;2024-01-15T03:58:37;93489.81;;;0.92;59.79
1472;BME280;963;42.644;23.336;2024-01-15T04:01:03;93459.19;;;0.94;59.62
1472;BME280;963;42.644;23.336;2024-01-15T04:03:28;93474.59;;;0.90;59.83
1472;BME280;963;42.644;23.336;2024-01-15T04:05:54;93432.59;;;0.85;59.90
1472;BME280;963;42.644;23.336;2024-01-15T04:08:19;93433.88;;;0.70;60.43
1472;BME280;963;42.644;23.336;2024-01-15T04:10:44;93419.94;;;0.54;60.70
1472;BME280;963;42.644;23.336;2024-01-15T04:13:10;93430.06;;;0.76;60.27
1472;BME280;963;42.644;23.336;2024-01-15T04:15:35;93438.50;;;0.56;61.04
1472;BME280;963;42.644;23.336;2024-01-15T04:18:02;93452.00;;;0.70;60.51
1472;BME280;963;42.644;23.336;2024-01-15T04:20:28;93408.19;;;0.65;60.64
1472;BME280;963;42.644;23.336;2024-01-15T04:22:53;93405.59;;;0.65;61.46
1472;BME280;963;42.644;23.336;2024-01-15T04:25:18;93422.75;;;0.78;60.89
1472;BME280;963;42.644;23.336;2024-01-15T04:27:44;93415.59;;;0.75;60.48
1472;BME280;963;42.644;23.336;2024-01-15T04:30:09;93426.53;;;0.81;60.64
1472;BME280;963;42.644;23.336;2024-01-15T04:32:35;93434.31;;;0.72;60.19
1472;BME280;963;42.644;23.336;2024-01-15T04:35:01;93422.38;;;0.59;60.90
1472;BME280;963;42.644;23.336;2024-01-15T04:37:26;93441.38;;;0.63;61.21
1472;BME280;963;42.644;23.336;2024-01-15T04:39:55;93432.88;;;0.54;61.31
1472;BME280;963;42.644;23.336;2024-01-15T04:42:21;93438.69;;;0.51;61.68
1472;BME280;963;42.644;23.336;2024-01-15T04:44:47;93434.75;;;0.45;61.94
1472;BME280;963;42.644;23.336;2024-01-15T04:47:12;93416.19;;;0.43;62.32
1472;BME280;963;42.644;23.336;2024-01-15T04:49:37;93432.63;;;0.47;61.57
1472;BME280;963;42.644;23.336;2024-01-15T04:52:03;93434.81;;;0.19;62.91
1472;BME280;963;42.644;23.336;2024-01-15T04:54:28;93422.59;;;0.37;61.78
1472;BME280;963;42.644;23.336;2024-01-15T04:56:54;93399.22;;;0.24;61.98
1472;BME280;963;42.644;23.336;2024-01-15T04:59:19;93408.31;;;0.30;62.13
1472;BME280;963;42.644;23.336;2024-01-15T05:01:44;93414.78;;;0.07;63.52
1472;BME280;963;42.644;23.336;2024-01-15T05:04:10;93405.28;;;0.28;63.40
1472;BME280;963;42.644;23.336;2024-01-15T05:06:35;93415.81;;;0.23;62.75
1472;BME280;963;42.644;23.336;2024-01-15T05:09:01;93411.75;;;0.05;64.06
1472;BME280;963;42.644;23.336;2024-01-15T05:11:26;93397.34;;;0.34;63.40
1472;BME280;963;42.644;23.336;2024-01-15T05:13:51;93418.03;;;0.34;62.95
1472;BME280;963;42.644;23.336;2024-01-15T05:16:17;93374.25;;;0.28;63.47
1472;BME280;963;42.644;23.336;2024-01-15T05:18:42;93371.03;;;0.40;62.80
1472;BME280;963;42.644;23.336;2024-01-15T05:21:08;93406.88;;;0.12;63.39
1472;BME280;963;42.644;23.336;2024-01-15T05:23:34;93414.78;;;0.07;63.90
1472;BME280;963;42.644;23.336;2024-01-15T05:26:00;93385.34;;;0.38;63.03
1472;BME280;963;42.644;23.336;2024-01-15T05:28:25;93385.44;;;0.12;63.75
1472;BME280;963;42.644;23.336;2024-01-15T05:30:50;93411.16;;;0.46;62.98
1472;BME280;963;42.644;23.336;2024-01-15T05:33:16;93383.91;;;0.49;62.46
1472;BME280;963;42.644;23.336;2024-01-15T05:35:42;93398.53;;;0.45;62.51
1472;BME280;963;42.644;23.336;2024-01-15T05:38:08;93390.81;;;0.36;61.99
1472;BME280;963;42.644;23.336;2024-01-15T05:40:33;93387.97;;;0.20;62.20
1472;BME280;963;42.644;23.336;2024-01-15T05:42:59;93393.78;;;0.17;63.19
1472;BME280;963;42.644;23.336;2024-01-15T05:45:26;93372.09;;;-0.08;63.05
1472;BME280;963;42.644;23.336;2024-01-15T05:47:52;93391.63;;;0.19;63.27
1472;BME280;963;42.644;23.336;2024-01-15T05:50:17;93373.41;;;0.16;63.56
1472;BME280;963;42.644;23.336;2024-01-15T05:52:43;93385.41;;;0.20;63.51
1472;BME280;963;42.644;23.336;2024-01-15T05:55:08;93369.44;;;0.18;62.88
1472;BME280;963;42.644;23.336;2024-01-15T05:57:35;93377.50;;;0.17;63.88
1472;BME280;963;42.644;23.336;2024-01-15T06:00:00;93381.28;;;0.19;64.14
1472;BME280;963;42.644;23.336;2024-01-15T06:02:25;93370.53;;;0.09;63.81
1472;BME280;963;42.644;23.336;2024-01-15T06:04:51;93374.66;;;0.01;64.07
1472;BME280;963;42.644;23.336;2024-01-15T06:07:16;93395.47;;;0.13;63.77
1472;BME280;963;42.644;23.336;2024-01-15T06:09:42;93385.59;;;0.07;64.60
1472;BME280;963;42.644;23.336;2024-01-15T06:12:07;93386.19;;;0.12;64.52
1472;BME280;963;42.644;23.336;2024-01-15T06:14:33;93381.59;;;0.18;64.74
1472;BME280;963;42.644;23.336;2024-01-15T06:16:58;93390.25;;;0.22;64.39
1472;BME280;963;42.644;23.336;2024-01-15T06:19:24;93388.13;;;0.24;64.37
1472;BME280;963;42.644;23.336;2024-01-15T06:21:49;93384.47;;;0.25;64.18
1472;BME280;963;42.644;23.336;2024-01-15T06:24:14;93385.50;;;0.32;64.46
1472;BME280;963;42.644;23.336;2024-01-15T06:26:40;93359.50;;;0.29;64.35
1472;BME280;963;42.644;23.336;2024-01-15T06:29:06;93359.81;;;0.27;64.03
1472;BME280;963;42.644;23.336;2024-01-15T06:31:31;93369.25;;;0.23;64.54
1472;BME280;963;42.644;23.336;2024-01-15T06:33:57;93367.06;;;0.43;64.15
1472;BME280;963;42.644;23.336;2024-01-15T06:36:22;93369.69;;;0.63;63.28
1472;BME280;963;42.644;23.336;2024-01-15T06:38:47;93379.63;;;0.53;63.83
1472;BME280;963;42.644;23.336;2024-01-15T06:41:13;93368.94;;;0.63;63.90
1472;BME280;963;42.644;23.336;2024-01-15T06:43:38;93386.38;;;0.75;63.88
1472;BME280;963;42.644;23.336;2024-01-15T06:46:04;93372.97;;;0.73;63.54
1472;BME280;963;42.644;23.336;2024-01-15T06:48:29;93375.72;;;0.76;63.57
1472;BME280;963;42.644;23.336;2024-01-15T06:50:54;93377.69;;;0.79;63.46
1472;BME280;963;42.644;23.336;2024-01-15T06:53:20;93383.75;;;0.83;63.03
1472;BME280;963;42.644;23.336;2024-01-15T06:55:46;93385.75;;;0.78;63.37
1472;BME280;963;42.644;23.336;2024-01-15T06:58:11;93379.19;;;0.80;62.97
1472;BME280;963;42.644;23.336;2024-01-15T07:00:37;93380.72;;;0.81;62.66
1472;BME280;963;42.644;23.336;2024-01-15T07:03:03;93394.34;;;0.90;62.73
1472;BME280;963;42.644;23.336;2024-01-15T07:05:28;93385.06;;;0.89;62.75
1472;BME280;963;42.644;23.336;2024-01-15T07:07:55;93392.25;;;0.84;62.13
1472;BME280;963;42.644;23.336;2024-01-15T07:10:20;93395.13;;;0.91;62.60
1472;BME280;963;42.644;23.336;2024-01-15T07:12:46;93406.75;;;1.06;62.54
1472;BME280;963;42.644;23.336;2024-01-15T07:15:11;93414.47;;;1.14;62.36
1472;BME280;963;42.644;23.336;2024-01-15T07:17:37;93393.13;;;1.17;62.15
1472;BME280;963;42.644;23.336;2024-01-15T07:20:09;93398.19;;;1.14;62.19
1472;BME280;963;42.644;23.336;2024-01-15T07:22:37;93391.47;;;1.13;62.16
1472;BME280;963;42.644;23.336;2024-01-15T07:25:03;93389.97;;;1.12;62.28
1472;BME280;963;42.644;23.336;2024-01-15T07:27:30;93376.09;;;1.08;62.48
1472;BME280;963;42.644;23.336;2024-01-15T07:29:56;93377.47;;;1.14;62.26
1472;BME280;963;42.644;23.336;2024-01-15T07:32:21;93369.34;;;0.94;62.44
1472;BME280;963;42.644;23.336;2024-01-15T07:34:47;93374.72;;;0.89;63.14
1472;BME280;963;42.644;23.336;2024-01-15T07:37:12;93407.66;;;0.80;63.19
1472;BME280;963;42.644;23.336;2024-01-15T07:39:38;93372.88;;;1.11;61.90
1472;BME280;963;42.644;23.336;2024-01-15T07:42:03;93387.88;;;1.26;61.87
1472;BME280;963;42.644;23.336;2024-01-15T07:44:29;93369.13;;;1.29;61.38
1472;BME280;963;42.644;23.336;2024-01-15T07:46:54;93394.59;;;0.98;62.83
1472;BME280;963;42.644;23.336;2024-01-15T07:49:20;93393.06;;;1.26;61.27
1472;BME280;963;42.644;23.336;2024-01-15T07:51:45;93383.53;;;1.18;62.00
1472;BME280;963;42.644;23.336;2024-01-15T07:54:11;93417.97;;;1.10;61.49
1472;BME280;963;42.644;23.336;2024-01-15T07:59:23;93399.28;;;1.46;61.06
1472;BME280;963;42.644;23.336;2024-01-15T08:01:50;93392.84;;;0.89;62.53
1472;BME280;963;42.644;23.336;2024-01-15T08:04:15;93360.97;;;1.18;62.17
1472;BME280;963;42.644;23.336;2024-01-15T08:06:41;93334.38;;;1.30;61.31
1472;BME280;963;42.644;23.336;2024-01-15T08:09:06;93386.59;;;0.23;65.39
1472;BME280;963;42.644;23.336;2024-01-15T08:11:31;93341.78;;;0.69;64.10
1472;BME280;963;42.644;23.336;2024-01-15T08:13:57;93371.38;;;0.89;62.32
1472;BME280;963;42.644;23.336;2024-01-15T08:16:23;93370.38;;;1.23;61.65
1472;BME280;963;42.644;23.336;2024-01-15T08:18:50;93365.44;;;1.30;61.24
1472;BME280;963;42.644;23.336;2024-01-15T08:21:16;93374.84;;;1.35;61.09
1472;BME280;963;42.644;23.336;2024-01-15T08:23:41;93397.78;;;1.66;60.45
1472;BME280;963;42.644;23.336;2024-01-15T08:26:07;93390.56;;;1.71;59.79
1472;BME280;963;42.644;23.336;2024-01-15T08:28:34;93397.28;;;1.51;60.80
1472;BME280;963;42.644;23.336;2024-01-15T08:30:59;93362.25;;;1.66;59.36
1472;BME280;963;42.644;23.336;2024-01-15T08:33:24;93373.19;;;1.84;59.07
1472;BME280;963;42.644;23.336;2024-01-15T08:35:50;93363.31;;;2.10;58.27
1472;BME280;963;42.644;23.336;2024-01-15T08:38:15;93382.03;;;2.16;58.30
1472;BME280;963;42.644;23.336;2024-01-15T08:40:40;93348.97;;;1.68;60.51
1472;BME280;963;42.644;23.336;2024-01-15T08:43:06;93355.53;;;2.10;58.50
1472;BME280;963;42.644;23.336;2024-01-15T08:45:32;93338.47;;;2.09;58.15
1472;BME280;963;42.644;23.336;2024-01-15T08:47:58;93364.56;;;2.37;57.83
1472;BME280;963;42.644;23.336;2024-01-15T08:50:23;93329.31;;;2.48;57.93
1472;BME280;963;42.644;23.336;2024-01-15T08:52:49;93339.47;;;2.54;57.70
1472;BME280;963;42.644;23.336;2024-01-15T08:55:14;93365.84;;;2.56;57.62
1472;BME280;963;42.644;23.336;2024-01-15T08:57:40;93342.81;;;2.54;57.95
1472;BME280;963;42.644;23.336;2024-01-15T09:00:05;93325.72;;;2.53;57.25
1472;BME280;963;42.644;23.336;2024-01-15T09:02:34;93339.16;;;2.67;56.73
1472;BME280;963;42.644;23.336;2024-01-15T09:05:00;93337.84;;;2.73;57.17
1472;BME280;963;42.644;23.336;2024-01-15T09:07:25;93303.66;;;2.59;56.93
1472;BME280;963;42.644;23.336;2024-01-15T09:09:52;93314.16;;;2.75;56.36
1472;BME280;963;42.644;23.336;2024-01-15T09:12:17;93284.16;;;2.77;56.53
1472;BME280;963;42.644;23.336;2024-01-15T09:14:44;93297.69;;;2.83;56.22
1472;BME280;963;42.644;23.336;2024-01-15T09:17:09;93275.50;;;2.86;56.17
1472;BME280;963;42.644;23.336;2024-01-15T09:19:35;93261.16;;;3.04;56.12
1472;BME280;963;42.644;23.336;2024-01-15T09:22:00;93252.47;;;3.12;55.81
1472;BME280;963;42.644;23.336;2024-01-15T09:24:25;93257.09;;;3.19;55.69
1472;BME280;963;42.644;23.336;2024-01-15T09:26:51;93257.03;;;3.31;55.13
1472;BME280;963;42.644;23.336;2024-01-15T09:29:16;93236.88;;;3.40;55.67
1472;BME280;963;42.644;23.336;2024-01-15T09:31:43;93275.69;;;3.49;56.19
1472;BME280;963;42.644;23.336;2024-01-15T09:34:09;93269.41;;;3.50;56.54
1472;BME280;963;42.644;23.336;2024-01-15T09:36:43;93251.97;;;3.50;56.44
1472;BME280;963;42.644;23.336;2024-01-15T09:39:09;93234.81;;;3.18;57.22
1472;BME280;963;42.644;23.336;2024-01-15T09:41:36;93256.38;;;3.34;56.84
1472;BME280;963;42.644;23.336;2024-01-15T09:44:06;93241.16;;;3.48;56.11
1472;BME280;963;42.644;23.336;2024-01-15T09:46:34;93235.78;;;3.57;55.18
1472;BME280;963;42.644;23.336;2024-01-15T09:49:00;93253.81;;;3.65;55.65
1472;BME280;963;42.644;23.336;2024-01-15T09:51:29;93212.97;;;3.66;55.26
1472;BME280;963;42.644;23.336;2024-01-15T09:53:57;93194.53;;;3.55;55.25
1472;BME280;963;42.644;23.336;2024-01-15T09:56:23;93209.53;;;3.62;55.17
1472;BME280;963;42.644;23.336;2024-01-15T09:58:48;93195.13;;;3.64;54.51
1472;BME280;963;42.644;23.336;2024-01-15T10:01:16;93193.53;;;3.60;55.16
1472;BME280;963;42.644;23.336;2024-01-15T10:03:42;93195.50;;;3.19;56.58
1472;BME280;963;42.644;23.336;2024-01-15T10:06:08;93228.66;;;3.54;55.78
1472;BME280;963;42.644;23.336;2024-01-15T10:08:38;93200.75;;;3.51;55.40
1472;BME280;963;42.644;23.336;2024-01-15T10:11:04;93217.59;;;3.41;56.01
1472;BME280;963;42.644;23.336;2024-01-15T10:13:30;93188.53;;;3.07;56.48
1472;BME280;963;42.644;23.336;2024-01-15T10:15:56;93217.25;;;2.71;58.27
1472;BME280;963;42.644;23.336;2024-01-15T10:18:21;93190.75;;;2.65;58.46
1472;BME280;963;42.644;23.336;2024-01-15T10:20:47;93193.81;;;3.11;57.26
1472;BME280;963;42.644;23.336;2024-01-15T10:23:14;93156.19;;;3.68;56.40
1472;BME280;963;42.644;23.336;2024-01-15T10:25:42;93161.44;;;4.19;55.32
1472;BME280;963;42.644;23.336;2024-01-15T10:28:07;93163.94;;;4.69;53.94
1472;BME280;963;42.644;23.336;2024-01-15T10:30:33;93154.13;;;5.01;52.73
1472;BME280;963;42.644;23.336;2024-01-15T10:33:03;93121.47;;;5.30;51.89
1472;BME280;963;42.644;23.336;2024-01-15T10:35:32;93139.53;;;5.43;51.62
1472;BME280;963;42.644;23.336;2024-01-15T10:38:01;93127.19;;;5.89;51.72
1472;BME280;963;42.644;23.336;2024-01-15T10:40:28;93135.31;;;6.33;50.46
1472;BME280;963;42.644;23.336;2024-01-15T10:42:54;93119.19;;;6.57;48.74
1472;BME280;963;42.644;23.336;2024-01-15T10:45:19;93127.09;;;6.98;46.96
1472;BME280;963;42.644;23.336;2024-01-15T10:47:45;93123.56;;;7.17;46.61
1472;BME280;963;42.644;23.336;2024-01-15T10:50:11;93129.66;;;7.32;46.46
1472;BME280;963;42.644;23.336;2024-01-15T10:52:38;93108.88;;;7.46;45.75
1472;BME280;963;42.644;23.336;2024-01-15T10:55:07;93092.09;;;7.54;46.33
1472;BME280;963;42.644;23.336;2024-01-15T10:57:34;93091.84;;;7.73;45.03
1472;BME280;963;42.644;23.336;2024-01-15T11:00:00;93105.84;;;7.92;44.43
1472;BME280;963;42.644;23.336;2024-01-15T11:02:28;93101.78;;;8.01;44.47
1472;BME280;963;42.644;23.336;2024-01-15T11:04:53;93100.72;;;8.13;43.45
1472;BME280;963;42.644;23.336;2024-01-15T11:07:22;93084.22;;;8.09;43.30
1472;BME280;963;42.644;23.336;2024-01-15T11:09:49;93080.13;;;8.15;43.67
1472;BME280;963;42.644;23.336;2024-01-15T11:12:16;93082.53;;;8.34;43.28
1472;BME280;963;42.644;23.336;2024-01-15T11:14:47;93069.91;;;8.65;42.85
1472;BME280;963;42.644;23.336;2024-01-15T11:17:14;93075.94;;;8.83;42.17
1472;BME280;963;42.644;23.336;2024-01-15T11:25:03;93070.41;;;9.81;41.04
1472;BME280;963;42.644;23.336;2024-01-15T11:27:42;93057.31;;;9.38;41.29
1472;BME280;963;42.644;23.336;2024-01-15T11:30:08;93058.78;;;9.53;41.70
1472;BME280;963;42.644;23.336;2024-01-15T11:32:37;93070.75;;;9.97;40.82
1472;BME280;963;42.644;23.336;2024-01-15T11:35:06;93062.09;;;10.14;39.73
1472;BME280;963;42.644;23.336;2024-01-15T11:40:21;93061.41;;;10.98;38.92
1472;BME280;963;42.644;23.336;2024-01-15T11:42:47;93043.19;;;11.24;38.47
1472;BME280;963;42.644;23.336;2024-01-15T11:45:16;93045.34;;;11.37;38.23
1472;BME280;963;42.644;23.336;2024-01-15T11:50:21;93061.84;;;11.44;39.05
1472;BME280;963;42.644;23.336;2024-01-15T11:52:56;93066.06;;;11.31;38.42
1472;BME280;963;42.644;23.336;2024-01-15T11:55:30;93028.09;;;11.32;38.69
1472;BME280;963;42.644;23.336;2024-01-15T11:58:00;93013.28;;;10.97;39.33
1472;BME280;963;42.644;23.336;2024-01-15T12:00:26;93030.91;;;11.04;38.89
1472;BME280;963;42.644;23.336;2024-01-15T12:02:52;93033.09;;;11.12;38.90
1472;BME280;963;42.644;23.336;2024-01-15T12:05:19;93021.09;;;11.08;39.17
1472;BME280;963;42.644;23.336;2024-01-15T12:07:46;93024.59;;;10.94;39.34
1472;BME280;963;42.644;23.336;2024-01-15T12:10:21;93017.13;;;10.85;39.60
1472;BME280;963;42.644;23.336;2024-01-15T12:13:00;93005.03;;;10.95;39.86
1472;BME280;963;42.644;23.336;2024-01-15T12:15:27;93004.19;;;11.09;39.75
1472;BME280;963;42.644;23.336;2024-01-15T12:18:03;93008.66;;;11.12;39.21
1472;BME280;963;42.644;23.336;2024-01-15T12:20:30;92975.47;;;10.80;40.01
1472;BME280;963;42.644;23.336;2024-01-15T12:22:57;93012.09;;;10.36;41.84
1472;BME280;963;42.644;23.336;2024-01-15T12:25:23;93003.13;;;10.19;45.73
1472;BME280;963;42.644;23.336;2024-01-15T12:27:49;93004.38;;;9.82;43.58
1472;BME280;963;42.644;23.336;2024-01-15T12:30:14;93041.19;;;9.47;42.58
1472;BME280;963;42.644;23.336;2024-01-15T12:32:44;93025.78;;;9.20;42.92
1472;BME280;963;42.644;23.336;2024-01-15T12:35:13;93004.81;;;9.13;42.51
1472;BME280;963;42.644;23.336;2024-01-15T12:37:39;93004.06;;;9.02;43.43
1472;BME280;963;42.644;23.336;2024-01-15T12:40:08;93011.16;;;8.87;43.42
1472;BME280;963;42.644;23.336;2024-01-15T12:42:40;92988.69;;;8.75;43.29
1472;BME280;963;42.644;23.336;2024-01-15T12:45:07;92994.28;;;8.74;43.57
1472;BME280;963;42.644;23.336;2024-01-15T12:47:33;92999.53;;;8.63;43.98
1472;BME280;963;42.644;23.336;2024-01-15T12:49:59;92991.22;;;8.43;44.33
1472;BME280;963;42.644;23.336;2024-01-15T12:52:27;92990.41;;;8.25;44.37
1472;BME280;963;42.644;23.336;2024-01-15T12:54:53;93006.47;;;8.20;44.58
1472;BME280;963;42.644;23.336;2024-01-15T12:57:18;93010.63;;;8.25;44.87
1472;BME280;963;42.644;23.336;2024-01-15T12:59:44;92994.47;;;8.15;44.72
1472;BME280;963;42.644;23.336;2024-01-15T13:02:13;92968.59;;;8.00;45.32
1472;BME280;963;42.644;23.336;2024-01-15T13:04:39;92997.81;;;8.09;45.43
1472;BME280;963;42.644;23.336;2024-01-15T13:07:05;92979.84;;;8.04;45.28
1472;BME280;963;42.644;23.336;2024-01-15T13:09:31;92986.19;;;8.03;45.77
1472;BME280;963;42.644;23.336;2024-01-15T13:11:57;92973.88;;;8.07;45.79
1472;BME280;963;42.644;23.336;2024-01-15T13:14:22;92967.13;;;8.06;46.16
1472;BME280;963;42.644;23.336;2024-01-15T13:16:48;92962.63;;;8.03;46.00
1472;BME280;963;42.644;23.336;2024-01-15T13:19:13;92955.16;;;8.05;45.96
1472;BME280;963;42.644;23.336;2024-01-15T13:21:40;92949.91;;;8.01;46.29
1472;BME280;963;42.644;23.336;2024-01-15T13:24:06;92960.00;;;7.99;46.08
1472;BME280;963;42.644;23.336;2024-01-15T13:26:34;92964.09;;;7.97;46.45
1472;BME280;963;42.644;23.336;2024-01-15T13:29:05;92964.47;;;7.92;46.29
1472;BME280;963;42.644;23.336;2024-01-15T13:31:31;92958.84;;;7.86;46.67
1472;BME280;963;42.644;23.336;2024-01-15T13:33:57;92956.63;;;7.92;46.67
1472;BME280;963;42.644;23.336;2024-01-15T13:36:23;92960.34;;;7.87;46.99
1472;BME280;963;42.644;23.336;2024-01-15T13:38:52;92963.31;;;7.82;46.81